sensor_id;sensor_type;location;lat;lon;timestamp;pressure;altitude;pressure_sealevel;temperature;humidity
55916;BME280;41826;53.246;-6.670;2023-05-11T00:01:41;100531.66;;;11.59;100.00
55916;BME280;41826;53.246;-6.670;2023-05-11T00:04:07;100540.78;;;11.47;100.00
55916;BME280;41826;53.246;-6.670;2023-05-11T00:06:33;100605.50;;;11.48;100.00
55916;BME280;41826;53.246;-6.670;2023-05-11T00:08:58;100608.34;;;11.73;100.00
55916;BME280;41826;53.246;-6.670;2023-05-11T00:11:24;100626.59;;;11.56;100.00
55916;BME280;41826;53.246;-6.670;2023-05-11T00:13:49;100655.84;;;11.53;100.00
55916;BME280;41826;53.246;-6.670;2023-05-11T00:16:15;100618.38;;;11.77;100.00
55916;BME280;41826;53.246;-6.670;2023-05-11T00:18:40;100657.41;;;11.46;100.00
55916;BME280;41826;53.246;-6.670;2023-05-11T00:21:09;100673.84;;;11.84;100.00
55916;BME280;41826;53.246;-6.670;2023-05-11T00:23:34;100620.94;;;11.87;100.00
55916;BME280;41826;53.246;-6.670;2023-05-11T00:26:00;100639.53;;;11.67;100.00
55916;BME280;41826;53.246;-6.670;2023-05-11T00:28:25;100552.47;;;11.97;100.00
55916;BME280;41826;53.246;-6.670;2023-05-11T00:30:55;100540.50;;;11.84;100.00
55916;BME280;41826;53.246;-6.670;2023-05-11T00:33:21;100583.09;;;11.62;100.00
55916;BME280;41826;53.246;-6.670;2023-05-11T00:35:47;100554.03;;;11.63;100.00
55916;BME280;41826;53.246;-6.670;2023-05-11T00:38:13;100570.91;;;11.79;100.00
55916;BME280;41826;53.246;-6.670;2023-05-11T00:40:39;100336.75;;;12.05;100.00
55916;BME280;41826;53.246;-6.670;2023-05-11T00:43:05;100266.88;;;12.02;100.00
55916;BME280;41826;53.246;-6.670;2023-05-11T00:45:31;100324.63;;;11.61;100.00
55916;BME280;41826;53.246;-6.670;2023-05-11T00:47:56;100302.50;;;11.80;100.00
55916;BME280;41826;53.246;-6.670;2023-05-11T00:50:23;100204.19;;;11.73;100.00
55916;BME280;41826;53.246;-6.670;2023-05-11T00:52:52;100301.72;;;11.37;100.00
55916;BME280;41826;53.246;-6.670;2023-05-11T00:55:18;100471.47;;;11.04;100.00
55916;BME280;41826;53.246;-6.670;2023-05-11T00:57:47;100608.66;;;10.98;100.00
55916;BME280;41826;53.246;-6.670;2023-05-11T01:00:13;100706.88;;;11.15;100.00
55916;BME280;41826;53.246;-6.670;2023-05-11T01:02:39;100645.84;;;11.39;100.00
55916;BME280;41826;53.246;-6.670;2023-05-11T01:05:05;100477.75;;;11.55;100.00
55916;BME280;41826;53.246;-6.670;2023-05-11T01:10:22;99840.13;;;12.15;100.00
55916;BME280;41826;53.246;-6.670;2023-05-11T01:12:59;99664.31;;;12.19;100.00
55916;BME280;41826;53.246;-6.670;2023-05-11T01:15:33;99450.28;;;12.26;100.00
55916;BME280;41826;53.246;-6.670;2023-05-11T01:18:10;99326.16;;;12.23;100.00
55916;BME280;41826;53.246;-6.670;2023-05-11T01:20:37;99212.44;;;12.21;100.00
55916;BME280;41826;53.246;-6.670;2023-05-11T01:25:45;99134.63;;;12.11;100.00
55916;BME280;41826;53.246;-6.670;2023-05-11T01:31:08;99229.38;;;11.75;100.00
55916;BME280;41826;53.246;-6.670;2023-05-11T01:33:36;99257.13;;;11.78;100.00
55916;BME280;41826;53.246;-6.670;2023-05-11T01:36:06;99358.94;;;11.54;100.00
55916;BME280;41826;53.246;-6.670;2023-05-11T01:38:35;99318.28;;;11.50;100.00
55916;BME280;41826;53.246;-6.670;2023-05-11T01:41:09;99259.28;;;11.74;100.00
55916;BME280;41826;53.246;-6.670;2023-05-11T01:43:36;99228.13;;;11.71;100.00
55916;BME280;41826;53.246;-6.670;2023-05-11T01:46:04;99339.09;;;11.52;100.00
55916;BME280;41826;53.246;-6.670;2023-05-11T01:48:34;99377.25;;;11.33;100.00
55916;BME280;41826;53.246;-6.670;2023-05-11T01:51:02;99536.44;;;11.04;100.00
55916;BME280;41826;53.246;-6.670;2023-05-11T01:53:31;99717.66;;;11.04;100.00
55916;BME280;41826;53.246;-6.670;2023-05-11T01:55:59;99632.19;;;11.24;100.00
55916;BME280;41826;53.246;-6.670;2023-05-11T01:58:27;99680.03;;;11.03;100.00
55916;BME280;41826;53.246;-6.670;2023-05-11T02:00:53;99723.03;;;11.11;100.00
55916;BME280;41826;53.246;-6.670;2023-05-11T02:03:20;99847.34;;;10.95;100.00
55916;BME280;41826;53.246;-6.670;2023-05-11T02:05:48;99866.84;;;11.00;100.00
55916;BME280;41826;53.246;-6.670;2023-05-11T02:08:15;99915.09;;;10.91;100.00
55916;BME280;41826;53.246;-6.670;2023-05-11T02:10:42;99972.41;;;10.88;100.00
55916;BME280;41826;53.246;-6.670;2023-05-11T02:13:09;99841.91;;;11.04;100.00
55916;BME280;41826;53.246;-6.670;2023-05-11T02:15:40;99898.88;;;10.88;100.00
55916;BME280;41826;53.246;-6.670;2023-05-11T02:18:10;99991.25;;;10.83;100.00
55916;BME280;41826;53.246;-6.670;2023-05-11T02:20:37;99992.91;;;10.92;100.00
55916;BME280;41826;53.246;-6.670;2023-05-11T02:23:06;100027.88;;;10.84;100.00
55916;BME280;41826;53.246;-6.670;2023-05-11T02:25:32;100096.41;;;10.73;100.00
55916;BME280;41826;53.246;-6.670;2023-05-11T02:27:58;100101.72;;;10.81;100.00
55916;BME280;41826;53.246;-6.670;2023-05-11T02:30:26;100069.69;;;10.78;100.00
55916;BME280;41826;53.246;-6.670;2023-05-11T02:32:53;100136.13;;;10.78;100.00
55916;BME280;41826;53.246;-6.670;2023-05-11T02:35:23;100276.78;;;10.55;100.00
55916;BME280;41826;53.246;-6.670;2023-05-11T02:37:53;100422.66;;;10.39;100.00
55916;BME280;41826;53.246;-6.670;2023-05-11T02:40:27;100414.38;;;10.70;100.00
55916;BME280;41826;53.246;-6.670;2023-05-11T02:42:57;100305.88;;;10.88;100.00
55916;BME280;41826;53.246;-6.670;2023-05-11T02:45:27;100189.41;;;10.97;100.00
55916;BME280;41826;53.246;-6.670;2023-05-11T02:47:57;100163.09;;;10.89;100.00
55916;BME280;41826;53.246;-6.670;2023-05-11T02:50:23;100103.03;;;10.94;100.00
55916;BME280;41826;53.246;-6.670;2023-05-11T02:52:56;100048.88;;;10.93;100.00
55916;BME280;41826;53.246;-6.670;2023-05-11T02:55:24;100197.94;;;10.65;100.00
55916;BME280;41826;53.246;-6.670;2023-05-11T02:57:51;100239.44;;;10.61;100.00
55916;BME280;41826;53.246;-6.670;2023-05-11T03:00:16;100251.16;;;10.75;100.00
55916;BME280;41826;53.246;-6.670;2023-05-11T03:02:42;100202.28;;;10.74;100.00
55916;BME280;41826;53.246;-6.670;2023-05-11T03:05:07;100177.00;;;10.81;100.00
55916;BME280;41826;53.246;-6.670;2023-05-11T03:07:33;100252.63;;;10.69;100.00
55916;BME280;41826;53.246;-6.670;2023-05-11T03:10:00;100258.00;;;10.68;100.00
55916;BME280;41826;53.246;-6.670;2023-05-11T03:12:26;100179.38;;;10.92;100.00
55916;BME280;41826;53.246;-6.670;2023-05-11T03:15:00;100204.22;;;10.72;100.00
55916;BME280;41826;53.246;-6.670;2023-05-11T03:17:27;100252.66;;;10.77;100.00
55916;BME280;41826;53.246;-6.670;2023-05-11T03:19:55;100175.13;;;10.99;100.00
55916;BME280;41826;53.246;-6.670;2023-05-11T03:22:22;99972.56;;;11.11;100.00
55916;BME280;41826;53.246;-6.670;2023-05-11T03:24:48;99965.81;;;11.08;100.00
55916;BME280;41826;53.246;-6.670;2023-05-11T03:27:15;99790.31;;;11.20;100.00
55916;BME280;41826;53.246;-6.670;2023-05-11T03:29:42;99913.31;;;10.92;100.00
55916;BME280;41826;53.246;-6.670;2023-05-11T03:32:09;100109.19;;;10.68;100.00
55916;BME280;41826;53.246;-6.670;2023-05-11T03:34:35;100133.69;;;10.77;100.00
55916;BME280;41826;53.246;-6.670;2023-05-11T03:37:01;100121.97;;;10.63;100.00
55916;BME280;41826;53.246;-6.670;2023-05-11T03:39:29;100162.97;;;10.56;100.00
55916;BME280;41826;53.246;-6.670;2023-05-11T03:41:58;100267.78;;;10.57;100.00
55916;BME280;41826;53.246;-6.670;2023-05-11T03:44:24;100339.94;;;10.53;100.00
55916;BME280;41826;53.246;-6.670;2023-05-11T03:46:52;100379.97;;;10.55;100.00
55916;BME280;41826;53.246;-6.670;2023-05-11T03:49:23;100390.47;;;10.55;100.00
55916;BME280;41826;53.246;-6.670;2023-05-11T03:51:48;100416.72;;;10.55;100.00
55916;BME280;41826;53.246;-6.670;2023-05-11T03:54:17;100382.09;;;10.52;100.00
55916;BME280;41826;53.246;-6.670;2023-05-11T03:56:43;100387.41;;;10.60;100.00
55916;BME280;41826;53.246;-6.670;2023-05-11T03:59:13;100370.06;;;10.67;100.00
55916;BME280;41826;53.246;-6.670;2023-05-11T04:01:41;100378.94;;;10.66;100.00
55916;BME280;41826;53.246;-6.670;2023-05-11T04:04:07;100364.28;;;10.46;100.00
55916;BME280;41826;53.246;-6.670;2023-05-11T04:06:32;100392.97;;;10.39;100.00
55916;BME280;41826;53.246;-6.670;2023-05-11T04:08:58;100432.16;;;10.40;100.00
55916;BME280;41826;53.246;-6.670;2023-05-11T04:11:23;100477.31;;;10.44;100.00
55916;BME280;41826;53.246;-6.670;2023-05-11T04:13:49;100474.63;;;10.54;100.00
55916;BME280;41826;53.246;-6.670;2023-05-11T04:16:15;100482.06;;;10.58;100.00
55916;BME280;41826;53.246;-6.670;2023-05-11T04:18:40;100461.72;;;10.60;100.00
55916;BME280;41826;53.246;-6.670;2023-05-11T04:21:05;100491.19;;;10.54;100.00
55916;BME280;41826;53.246;-6.670;2023-05-11T04:23:31;100405.56;;;10.71;100.00
55916;BME280;41826;53.246;-6.670;2023-05-11T04:25:56;100408.34;;;10.52;100.00
55916;BME280;41826;53.246;-6.670;2023-05-11T04:28:22;100445.31;;;10.58;100.00
55916;BME280;41826;53.246;-6.670;2023-05-11T04:30:53;100466.00;;;10.61;100.00
55916;BME280;41826;53.246;-6.670;2023-05-11T04:33:19;100380.31;;;10.78;100.00
55916;BME280;41826;53.246;-6.670;2023-05-11T04:35:45;100319.66;;;10.81;100.00
55916;BME280;41826;53.246;-6.670;2023-05-11T04:38:10;100224.81;;;10.93;100.00
55916;BME280;41826;53.246;-6.670;2023-05-11T04:40:35;100237.94;;;10.84;100.00
55916;BME280;41826;53.246;-6.670;2023-05-11T04:43:01;100268.19;;;10.71;100.00
55916;BME280;41826;53.246;-6.670;2023-05-11T04:45:26;100314.22;;;10.57;100.00
55916;BME280;41826;53.246;-6.670;2023-05-11T04:47:52;100351.63;;;10.59;100.00
55916;BME280;41826;53.246;-6.670;2023-05-11T04:50:17;100409.44;;;10.67;100.00
55916;BME280;41826;53.246;-6.670;2023-05-11T04:52:43;100341.41;;;10.74;100.00
55916;BME280;41826;53.246;-6.670;2023-05-11T04:55:08;100333.00;;;10.70;100.00
55916;BME280;41826;53.246;-6.670;2023-05-11T04:57:34;100421.38;;;10.61;100.00
55916;BME280;41826;53.246;-6.670;2023-05-11T04:59:59;100414.56;;;10.69;100.00
55916;BME280;41826;53.246;-6.670;2023-05-11T05:02:24;100292.66;;;10.71;100.00
55916;BME280;41826;53.246;-6.670;2023-05-11T05:04:50;100351.97;;;10.82;100.00
55916;BME280;41826;53.246;-6.670;2023-05-11T05:07:15;100272.41;;;10.90;100.00
55916;BME280;41826;53.246;-6.670;2023-05-11T05:09:41;100236.81;;;10.95;100.00
55916;BME280;41826;53.246;-6.670;2023-05-11T05:12:06;100083.38;;;11.06;100.00
55916;BME280;41826;53.246;-6.670;2023-05-11T05:14:32;100118.16;;;10.92;100.00
55916;BME280;41826;53.246;-6.670;2023-05-11T05:16:57;100053.81;;;10.96;100.00
55916;BME280;41826;53.246;-6.670;2023-05-11T05:19:24;100069.88;;;10.93;100.00
55916;BME280;41826;53.246;-6.670;2023-05-11T05:21:50;100044.16;;;10.96;100.00
55916;BME280;41826;53.246;-6.670;2023-05-11T05:24:15;99969.28;;;11.09;100.00
55916;BME280;41826;53.246;-6.670;2023-05-11T05:26:41;99890.97;;;11.12;100.00
55916;BME280;41826;53.246;-6.670;2023-05-11T05:29:06;99894.41;;;11.13;100.00
55916;BME280;41826;53.246;-6.670;2023-05-11T05:31:31;99838.41;;;11.20;100.00
55916;BME280;41826;53.246;-6.670;2023-05-11T05:33:57;99733.13;;;11.30;100.00
55916;BME280;41826;53.246;-6.670;2023-05-11T05:36:22;99629.13;;;11.36;100.00
55916;BME280;41826;53.246;-6.670;2023-05-11T05:38:48;99614.53;;;11.33;100.00
55916;BME280;41826;53.246;-6.670;2023-05-11T05:41:13;99623.41;;;11.32;100.00
55916;BME280;41826;53.246;-6.670;2023-05-11T05:43:39;99667.31;;;11.23;100.00
55916;BME280;41826;53.246;-6.670;2023-05-11T05:46:04;99588.56;;;11.38;100.00
55916;BME280;41826;53.246;-6.670;2023-05-11T05:48:30;99588.97;;;11.27;100.00
55916;BME280;41826;53.246;-6.670;2023-05-11T05:50:56;99819.09;;;10.97;100.00
55916;BME280;41826;53.246;-6.670;2023-05-11T05:53:21;99917.88;;;11.06;100.00
55916;BME280;41826;53.246;-6.670;2023-05-11T05:55:47;99820.69;;;11.22;100.00
55916;BME280;41826;53.246;-6.670;2023-05-11T05:58:12;99795.69;;;11.26;100.00
55916;BME280;41826;53.246;-6.670;2023-05-11T06:00:38;99759.56;;;11.28;100.00
55916;BME280;41826;53.246;-6.670;2023-05-11T06:03:06;99868.63;;;11.16;100.00
55916;BME280;41826;53.246;-6.670;2023-05-11T06:05:32;99831.66;;;11.26;100.00
55916;BME280;41826;53.246;-6.670;2023-05-11T06:07:57;99751.63;;;11.37;100.00
55916;BME280;41826;53.246;-6.670;2023-05-11T06:10:22;99780.22;;;11.32;100.00
55916;BME280;41826;53.246;-6.670;2023-05-11T06:12:48;99765.63;;;11.29;100.00
55916;BME280;41826;53.246;-6.670;2023-05-11T06:15:13;99780.47;;;11.22;100.00
55916;BME280;41826;53.246;-6.670;2023-05-11T06:17:38;99750.31;;;11.41;100.00
55916;BME280;41826;53.246;-6.670;2023-05-11T06:20:05;99783.50;;;11.34;100.00
55916;BME280;41826;53.246;-6.670;2023-05-11T06:22:30;99720.25;;;11.43;100.00
55916;BME280;41826;53.246;-6.670;2023-05-11T06:24:56;99765.06;;;11.42;100.00
55916;BME280;41826;53.246;-6.670;2023-05-11T06:27:22;99746.34;;;11.45;100.00
55916;BME280;41826;53.246;-6.670;2023-05-11T06:29:47;99780.84;;;11.42;100.00
55916;BME280;41826;53.246;-6.670;2023-05-11T06:32:13;99712.31;;;11.52;100.00
55916;BME280;41826;53.246;-6.670;2023-05-11T06:34:38;99680.44;;;11.55;100.00
55916;BME280;41826;53.246;-6.670;2023-05-11T06:37:04;99868.41;;;11.42;100.00
55916;BME280;41826;53.246;-6.670;2023-05-11T06:39:29;99986.03;;;11.32;100.00
55916;BME280;41826;53.246;-6.670;2023-05-11T06:41:54;99817.63;;;11.50;100.00
55916;BME280;41826;53.246;-6.670;2023-05-11T06:44:20;99827.94;;;11.52;100.00
55916;BME280;41826;53.246;-6.670;2023-05-11T06:46:45;99863.94;;;11.51;100.00
55916;BME280;41826;53.246;-6.670;2023-05-11T06:49:11;99788.34;;;11.53;100.00
55916;BME280;41826;53.246;-6.670;2023-05-11T06:51:36;99748.53;;;11.64;100.00
55916;BME280;41826;53.246;-6.670;2023-05-11T06:54:02;99719.91;;;11.69;100.00
55916;BME280;41826;53.246;-6.670;2023-05-11T06:56:27;99713.53;;;11.64;100.00
55916;BME280;41826;53.246;-6.670;2023-05-11T06:58:53;99712.00;;;11.69;100.00
55916;BME280;41826;53.246;-6.670;2023-05-11T07:01:19;99674.31;;;11.77;100.00
55916;BME280;41826;53.246;-6.670;2023-05-11T07:03:44;99659.41;;;11.78;100.00
55916;BME280;41826;53.246;-6.670;2023-05-11T07:06:14;99696.88;;;11.71;100.00
55916;BME280;41826;53.246;-6.670;2023-05-11T07:08:39;99649.31;;;11.81;100.00
55916;BME280;41826;53.246;-6.670;2023-05-11T07:11:05;99644.50;;;11.85;100.00
55916;BME280;41826;53.246;-6.670;2023-05-11T07:13:31;99683.69;;;11.80;100.00
55916;BME280;41826;53.246;-6.670;2023-05-11T07:15:56;99690.41;;;11.82;100.00
55916;BME280;41826;53.246;-6.670;2023-05-11T07:18:23;99756.69;;;11.78;100.00
55916;BME280;41826;53.246;-6.670;2023-05-11T07:20:52;99692.81;;;11.92;100.00
55916;BME280;41826;53.246;-6.670;2023-05-11T07:23:17;99697.09;;;11.93;100.00
55916;BME280;41826;53.246;-6.670;2023-05-11T07:25:43;99705.19;;;11.83;100.00
55916;BME280;41826;53.246;-6.670;2023-05-11T07:28:09;99757.41;;;11.95;100.00
55916;BME280;41826;53.246;-6.670;2023-05-11T07:30:34;99750.97;;;11.97;100.00
55916;BME280;41826;53.246;-6.670;2023-05-11T07:33:00;99813.47;;;11.95;100.00
55916;BME280;41826;53.246;-6.670;2023-05-11T07:35:26;99836.16;;;11.96;100.00
55916;BME280;41826;53.246;-6.670;2023-05-11T07:37:52;99838.06;;;12.02;100.00
55916;BME280;41826;53.246;-6.670;2023-05-11T07:40:17;99776.88;;;12.08;100.00
55916;BME280;41826;53.246;-6.670;2023-05-11T07:42:43;99766.00;;;12.11;100.00
55916;BME280;41826;53.246;-6.670;2023-05-11T07:45:08;99860.25;;;12.08;100.00
55916;BME280;41826;53.246;-6.670;2023-05-11T07:47:34;99836.00;;;12.21;100.00
55916;BME280;41826;53.246;-6.670;2023-05-11T07:49:59;99754.34;;;12.29;100.00
55916;BME280;41826;53.246;-6.670;2023-05-11T07:52:25;99809.13;;;12.25;100.00
55916;BME280;41826;53.246;-6.670;2023-05-11T07:54:50;99765.16;;;12.34;100.00
55916;BME280;41826;53.246;-6.670;2023-05-11T07:57:16;99748.06;;;12.30;100.00
55916;BME280;41826;53.246;-6.670;2023-05-11T07:59:41;99805.97;;;12.30;100.00
55916;BME280;41826;53.246;-6.670;2023-05-11T08:02:07;99858.59;;;12.30;100.00
55916;BME280;41826;53.246;-6.670;2023-05-11T08:04:33;99855.81;;;12.31;100.00
55916;BME280;41826;53.246;-6.670;2023-05-11T08:07:00;99849.84;;;12.38;100.00
55916;BME280;41826;53.246;-6.670;2023-05-11T08:09:25;99781.16;;;12.47;100.00
55916;BME280;41826;53.246;-6.670;2023-05-11T08:11:51;99813.41;;;12.49;100.00
55916;BME280;41826;53.246;-6.670;2023-05-11T08:14:17;99758.69;;;12.60;100.00
55916;BME280;41826;53.246;-6.670;2023-05-11T08:16:42;99705.47;;;12.79;100.00
55916;BME280;41826;53.246;-6.670;2023-05-11T08:19:08;99670.50;;;12.85;100.00
55916;BME280;41826;53.246;-6.670;2023-05-11T08:21:33;99684.94;;;12.89;100.00
55916;BME280;41826;53.246;-6.670;2023-05-11T08:23:59;99755.97;;;12.97;100.00
55916;BME280;41826;53.246;-6.670;2023-05-11T08:26:25;99697.44;;;13.17;100.00
55916;BME280;41826;53.246;-6.670;2023-05-11T08:28:50;99705.38;;;13.02;100.00
55916;BME280;41826;53.246;-6.670;2023-05-11T08:31:18;99702.44;;;13.12;100.00
55916;BME280;41826;53.246;-6.670;2023-05-11T08:33:44;99696.41;;;13.69;100.00
55916;BME280;41826;53.246;-6.670;2023-05-11T08:36:09;99704.44;;;13.61;100.00
55916;BME280;41826;53.246;-6.670;2023-05-11T08:38:37;99639.38;;;13.47;100.00
55916;BME280;41826;53.246;-6.670;2023-05-11T08:41:03;99704.59;;;13.23;100.00
55916;BME280;41826;53.246;-6.670;2023-05-11T08:43:31;99723.78;;;13.32;100.00
55916;BME280;41826;53.246;-6.670;2023-05-11T08:46:02;99701.16;;;13.37;100.00
55916;BME280;41826;53.246;-6.670;2023-05-11T08:48:28;99699.16;;;13.39;100.00
55916;BME280;41826;53.246;-6.670;2023-05-11T08:50:55;99670.97;;;13.40;100.00
55916;BME280;41826;53.246;-6.670;2023-05-11T08:53:21;99669.22;;;13.47;100.00
55916;BME280;41826;53.246;-6.670;2023-05-11T08:55:47;99691.13;;;13.48;100.00
55916;BME280;41826;53.246;-6.670;2023-05-11T08:58:14;99676.19;;;13.55;100.00
55916;BME280;41826;53.246;-6.670;2023-05-11T09:00:44;99662.25;;;13.61;100.00
55916;BME280;41826;53.246;-6.670;2023-05-11T09:03:09;99656.34;;;13.80;100.00
55916;BME280;41826;53.246;-6.670;2023-05-11T09:05:35;99658.97;;;13.80;100.00
55916;BME280;41826;53.246;-6.670;2023-05-11T09:08:03;99677.53;;;13.72;100.00
55916;BME280;41826;53.246;-6.670;2023-05-11T09:10:30;99630.06;;;13.94;100.00
55916;BME280;41826;53.246;-6.670;2023-05-11T09:12:56;99616.09;;;14.00;100.00
55916;BME280;41826;53.246;-6.670;2023-05-11T09:15:22;99602.75;;;14.08;100.00
55916;BME280;41826;53.246;-6.670;2023-05-11T09:17:47;99625.66;;;14.01;100.00
55916;BME280;41826;53.246;-6.670;2023-05-11T09:20:12;99650.84;;;14.03;100.00
55916;BME280;41826;53.246;-6.670;2023-05-11T09:22:45;99656.25;;;14.23;100.00
55916;BME280;41826;53.246;-6.670;2023-05-11T09:25:11;99582.22;;;14.38;100.00
55916;BME280;41826;53.246;-6.670;2023-05-11T09:27:41;99599.91;;;14.44;100.00
55916;BME280;41826;53.246;-6.670;2023-05-11T09:30:14;99595.03;;;14.41;100.00
55916;BME280;41826;53.246;-6.670;2023-05-11T09:32:49;99602.75;;;14.43;100.00
55916;BME280;41826;53.246;-6.670;2023-05-11T09:37:59;99559.41;;;14.59;100.00
55916;BME280;41826;53.246;-6.670;2023-05-11T09:40:26;99487.28;;;14.78;100.00
55916;BME280;41826;53.246;-6.670;2023-05-11T09:42:52;99509.06;;;14.87;100.00
55916;BME280;41826;53.246;-6.670;2023-05-11T09:45:38;99410.91;;;15.10;100.00
55916;BME280;41826;53.246;-6.670;2023-05-11T09:48:05;99376.91;;;15.13;100.00
55916;BME280;41826;53.246;-6.670;2023-05-11T09:50:32;99406.22;;;14.99;100.00
55916;BME280;41826;53.246;-6.670;2023-05-11T09:52:58;99359.63;;;15.17;100.00
55916;BME280;41826;53.246;-6.670;2023-05-11T09:55:24;99346.63;;;15.23;100.00
55916;BME280;41826;53.246;-6.670;2023-05-11T09:57:54;99341.94;;;15.25;100.00
55916;BME280;41826;53.246;-6.670;2023-05-11T10:00:21;99307.31;;;15.39;100.00
55916;BME280;41826;53.246;-6.670;2023-05-11T10:02:59;99298.75;;;15.44;100.00
55916;BME280;41826;53.246;-6.670;2023-05-11T10:05:25;99274.75;;;15.39;100.00
55916;BME280;41826;53.246;-6.670;2023-05-11T10:07:58;99299.94;;;15.48;100.00
55916;BME280;41826;53.246;-6.670;2023-05-11T10:10:26;99315.84;;;15.42;100.00
55916;BME280;41826;53.246;-6.670;2023-05-11T10:12:53;99380.53;;;15.46;100.00
55916;BME280;41826;53.246;-6.670;2023-05-11T10:15:18;99416.34;;;15.22;100.00
55916;BME280;41826;53.246;-6.670;2023-05-11T10:17:52;99390.16;;;14.93;100.00
55916;BME280;41826;53.246;-6.670;2023-05-11T10:20:22;99344.97;;;15.35;100.00
55916;BME280;41826;53.246;-6.670;2023-05-11T10:22:50;99343.13;;;15.29;100.00
55916;BME280;41826;53.246;-6.670;2023-05-11T10:25:17;99350.03;;;15.36;100.00
55916;BME280;41826;53.246;-6.670;2023-05-11T10:27:42;99291.22;;;15.48;100.00
55916;BME280;41826;53.246;-6.670;2023-05-11T10:30:09;99277.56;;;15.51;100.00
55916;BME280;41826;53.246;-6.670;2023-05-11T10:32:35;99254.13;;;15.54;100.00
55916;BME280;41826;53.246;-6.670;2023-05-11T10:35:05;99274.66;;;15.59;100.00
55916;BME280;41826;53.246;-6.670;2023-05-11T10:37:31;99274.84;;;15.64;100.00
55916;BME280;41826;53.246;-6.670;2023-05-11T10:39:58;99256.06;;;15.79;100.00
55916;BME280;41826;53.246;-6.670;2023-05-11T10:45:48;99313.69;;;15.77;100.00
55916;BME280;41826;53.246;-6.670;2023-05-11T10:48:43;99319.41;;;15.74;100.00
55916;BME280;41826;53.246;-6.670;2023-05-11T10:54:28;99294.25;;;15.96;100.00
55916;BME280;41826;53.246;-6.670;2023-05-11T11:02:56;99214.56;;;16.04;100.00
55916;BME280;41826;53.246;-6.670;2023-05-11T11:05:32;99186.16;;;15.93;100.00
55916;BME280;41826;53.246;-6.670;2023-05-11T11:07:59;99160.06;;;15.33;100.00
55916;BME280;41826;53.246;-6.670;2023-05-11T11:10:32;99265.75;;;15.53;100.00
55916;BME280;41826;53.246;-6.670;2023-05-11T11:13:07;99336.47;;;15.06;100.00
55916;BME280;41826;53.246;-6.670;2023-05-11T11:18:30;99650.44;;;13.57;100.00
55916;BME280;41826;53.246;-6.670;2023-05-11T11:20:59;99873.75;;;13.71;100.00
55916;BME280;41826;53.246;-6.670;2023-05-11T11:23:47;99905.81;;;14.41;100.00
55916;BME280;41826;53.246;-6.670;2023-05-11T11:26:15;99810.25;;;14.80;100.00
55916;BME280;41826;53.246;-6.670;2023-05-11T11:31:29;99806.09;;;14.71;100.00
55916;BME280;41826;53.246;-6.670;2023-05-11T11:33:56;99915.56;;;14.25;100.00
55916;BME280;41826;53.246;-6.670;2023-05-11T11:39:22;100106.50;;;14.11;100.00
55916;BME280;41826;53.246;-6.670;2023-05-11T11:42:06;100179.66;;;14.17;100.00
55916;BME280;41826;53.246;-6.670;2023-05-11T11:44:36;100154.09;;;13.80;100.00
55916;BME280;41826;53.246;-6.670;2023-05-11T11:47:20;100086.81;;;14.58;100.00
55916;BME280;41826;53.246;-6.670;2023-05-11T11:49:52;100095.72;;;14.87;100.00
55916;BME280;41826;53.246;-6.670;2023-05-11T11:54:54;99819.13;;;15.35;100.00
55916;BME280;41826;53.246;-6.670;2023-05-11T12:02:30;99531.84;;;14.94;100.00
55916;BME280;41826;53.246;-6.670;2023-05-11T12:04:57;99536.97;;;15.49;100.00
55916;BME280;41826;53.246;-6.670;2023-05-11T12:07:24;99508.69;;;15.16;100.00
55916;BME280;41826;53.246;-6.670;2023-05-11T12:09:50;99510.22;;;14.58;100.00
55916;BME280;41826;53.246;-6.670;2023-05-11T12:12:19;99689.94;;;14.21;100.00
55916;BME280;41826;53.246;-6.670;2023-05-11T12:14:46;99839.72;;;13.76;100.00
55916;BME280;41826;53.246;-6.670;2023-05-11T12:17:22;99955.41;;;13.35;100.00
55916;BME280;41826;53.246;-6.670;2023-05-11T12:19:47;100039.13;;;13.33;100.00
55916;BME280;41826;53.246;-6.670;2023-05-11T12:22:13;100131.94;;;13.20;100.00
55916;BME280;41826;53.246;-6.670;2023-05-11T12:24:41;100159.56;;;13.32;100.00
55916;BME280;41826;53.246;-6.670;2023-05-11T12:27:07;100128.28;;;13.75;100.00
55916;BME280;41826;53.246;-6.670;2023-05-11T12:29:32;100132.25;;;14.24;100.00
55916;BME280;41826;53.246;-6.670;2023-05-11T12:31:58;100100.47;;;14.17;100.00
55916;BME280;41826;53.246;-6.670;2023-05-11T12:34:24;100134.22;;;14.07;100.00
55916;BME280;41826;53.246;-6.670;2023-05-11T12:36:51;100139.50;;;14.07;100.00
55916;BME280;41826;53.246;-6.670;2023-05-11T12:39:24;100152.31;;;13.57;100.00
55916;BME280;41826;53.246;-6.670;2023-05-11T12:41:51;100176.44;;;13.46;100.00
55916;BME280;41826;53.246;-6.670;2023-05-11T12:44:18;100140.28;;;13.00;100.00
55916;BME280;41826;53.246;-6.670;2023-05-11T12:46:48;100182.00;;;13.51;100.00
55916;BME280;41826;53.246;-6.670;2023-05-11T12:49:19;100176.63;;;13.44;100.00
55916;BME280;41826;53.246;-6.670;2023-05-11T12:51:46;100185.16;;;13.15;100.00
55916;BME280;41826;53.246;-6.670;2023-05-11T12:54:47;100235.94;;;13.72;100.00
55916;BME280;41826;53.246;-6.670;2023-05-11T12:57:26;100231.88;;;13.38;100.00
55916;BME280;41826;53.246;-6.670;2023-05-11T13:00:24;100242.84;;;13.50;100.00
55916;BME280;41826;53.246;-6.670;2023-05-11T13:02:50;100233.78;;;13.52;100.00
55916;BME280;41826;53.246;-6.670;2023-05-11T13:05:16;100259.66;;;13.49;100.00
55916;BME280;41826;53.246;-6.670;2023-05-11T13:07:43;100349.38;;;13.16;100.00
55916;BME280;41826;53.246;-6.670;2023-05-11T13:10:11;100528.25;;;12.27;100.00
55916;BME280;41826;53.246;-6.670;2023-05-11T13:12:47;100776.41;;;12.38;100.00
55916;BME280;41826;53.246;-6.670;2023-05-11T13:15:13;100790.13;;;12.67;100.00
55916;BME280;41826;53.246;-6.670;2023-05-11T13:17:40;100847.75;;;12.08;100.00